sensor_id;sensor_type;location;lat;lon;timestamp;pressure;altitude;pressure_sealevel;temperature;humidity
62418;BME280;48456;54.242;10.280;2023-02-10T00:02:00;102823.47;;;1.52;100.00
62418;BME280;48456;54.242;10.280;2023-02-10T00:04:27;102825.59;;;1.44;100.00
62418;BME280;48456;54.242;10.280;2023-02-10T00:06:53;102827.06;;;1.40;100.00
62418;BME280;48456;54.242;10.280;2023-02-10T00:09:19;102836.91;;;1.31;100.00
62418;BME280;48456;54.242;10.280;2023-02-10T00:11:45;102840.81;;;1.24;100.00
62418;BME280;48456;54.242;10.280;2023-02-10T00:14:26;102843.31;;;1.23;100.00
62418;BME280;48456;54.242;10.280;2023-02-10T00:16:53;102848.13;;;1.16;100.00
62418;BME280;48456;54.242;10.280;2023-02-10T00:19:20;102841.78;;;1.13;100.00
62418;BME280;48456;54.242;10.280;2023-02-10T00:21:47;102843.06;;;1.06;100.00
62418;BME280;48456;54.242;10.280;2023-02-10T00:24:13;102847.88;;;1.00;100.00
62418;BME280;48456;54.242;10.280;2023-02-10T00:26:39;102840.66;;;0.96;100.00
62418;BME280;48456;54.242;10.280;2023-02-10T00:29:06;102850.75;;;0.91;100.00
62418;BME280;48456;54.242;10.280;2023-02-10T00:31:32;102851.31;;;0.87;100.00
62418;BME280;48456;54.242;10.280;2023-02-10T00:33:58;102845.53;;;0.91;100.00
62418;BME280;48456;54.242;10.280;2023-02-10T00:36:25;102841.00;;;0.88;100.00
62418;BME280;48456;54.242;10.280;2023-02-10T00:38:51;102856.66;;;0.88;100.00
62418;BME280;48456;54.242;10.280;2023-02-10T00:41:19;102855.84;;;0.89;100.00
62418;BME280;48456;54.242;10.280;2023-02-10T00:43:46;102847.16;;;0.89;100.00
62418;BME280;48456;54.242;10.280;2023-02-10T00:46:13;102853.22;;;0.89;100.00
62418;BME280;48456;54.242;10.280;2023-02-10T00:48:41;102861.16;;;0.91;100.00
62418;BME280;48456;54.242;10.280;2023-02-10T00:51:07;102860.06;;;0.87;100.00
62418;BME280;48456;54.242;10.280;2023-02-10T00:53:34;102857.34;;;0.86;100.00
62418;BME280;48456;54.242;10.280;2023-02-10T00:56:00;102852.72;;;0.82;100.00
62418;BME280;48456;54.242;10.280;2023-02-10T00:58:27;102850.00;;;0.80;100.00
62418;BME280;48456;54.242;10.280;2023-02-10T01:00:53;102856.03;;;0.79;100.00
62418;BME280;48456;54.242;10.280;2023-02-10T01:03:20;102853.19;;;0.76;100.00
62418;BME280;48456;54.242;10.280;2023-02-10T01:05:47;102861.00;;;0.76;100.00
62418;BME280;48456;54.242;10.280;2023-02-10T01:08:14;102861.22;;;0.79;100.00
62418;BME280;48456;54.242;10.280;2023-02-10T01:10:40;102860.81;;;0.73;100.00
62418;BME280;48456;54.242;10.280;2023-02-10T01:13:08;102862.41;;;0.71;100.00
62418;BME280;48456;54.242;10.280;2023-02-10T01:15:34;102865.91;;;0.71;100.00
62418;BME280;48456;54.242;10.280;2023-02-10T01:18:01;102869.22;;;0.69;100.00
62418;BME280;48456;54.242;10.280;2023-02-10T01:20:27;102863.34;;;0.59;100.00
62418;BME280;48456;54.242;10.280;2023-02-10T01:22:53;102866.53;;;0.55;100.00
62418;BME280;48456;54.242;10.280;2023-02-10T01:25:20;102867.22;;;0.52;100.00
62418;BME280;48456;54.242;10.280;2023-02-10T01:27:46;102866.44;;;0.54;100.00
62418;BME280;48456;54.242;10.280;2023-02-10T01:30:12;102870.03;;;0.56;100.00
62418;BME280;48456;54.242;10.280;2023-02-10T01:32:39;102864.84;;;0.56;100.00
62418;BME280;48456;54.242;10.280;2023-02-10T01:35:05;102861.31;;;0.55;100.00
62418;BME280;48456;54.242;10.280;2023-02-10T01:37:32;102862.69;;;0.62;100.00
62418;BME280;48456;54.242;10.280;2023-02-10T01:39:59;102863.78;;;0.66;100.00
62418;BME280;48456;54.242;10.280;2023-02-10T01:42:25;102862.41;;;0.71;100.00
62418;BME280;48456;54.242;10.280;2023-02-10T01:47:20;102855.09;;;0.78;100.00
62418;BME280;48456;54.242;10.280;2023-02-10T01:49:48;102861.13;;;0.77;100.00
62418;BME280;48456;54.242;10.280;2023-02-10T01:52:17;102850.00;;;0.80;100.00
62418;BME280;48456;54.242;10.280;2023-02-10T01:54:46;102863.47;;;0.86;100.00
62418;BME280;48456;54.242;10.280;2023-02-10T01:57:13;102863.47;;;0.86;100.00
62418;BME280;48456;54.242;10.280;2023-02-10T01:59:39;102847.53;;;0.95;100.00
62418;BME280;48456;54.242;10.280;2023-02-10T02:02:07;102857.28;;;0.98;100.00
62418;BME280;48456;54.242;10.280;2023-02-10T02:04:35;102855.81;;;1.01;100.00
62418;BME280;48456;54.242;10.280;2023-02-10T02:07:03;102852.50;;;1.04;100.00
62418;BME280;48456;54.242;10.280;2023-02-10T02:09:30;102852.59;;;1.06;100.00
62418;BME280;48456;54.242;10.280;2023-02-10T02:12:08;102848.38;;;1.08;100.00
62418;BME280;48456;54.242;10.280;2023-02-10T02:17:05;102841.25;;;1.05;100.00
62418;BME280;48456;54.242;10.280;2023-02-10T02:19:45;102841.03;;;1.02;100.00
62418;BME280;48456;54.242;10.280;2023-02-10T02:22:35;102844.25;;;0.98;100.00
62418;BME280;48456;54.242;10.280;2023-02-10T02:32:46;102844.75;;;0.92;100.00
62418;BME280;48456;54.242;10.280;2023-02-10T02:35:15;102852.16;;;0.99;100.00
62418;BME280;48456;54.242;10.280;2023-02-10T02:37:44;102851.47;;;1.02;100.00
62418;BME280;48456;54.242;10.280;2023-02-10T02:40:13;102852.72;;;1.07;100.00
62418;BME280;48456;54.242;10.280;2023-02-10T02:42:41;102852.13;;;1.11;100.00
62418;BME280;48456;54.242;10.280;2023-02-10T02:45:11;102847.09;;;1.14;100.00
62418;BME280;48456;54.242;10.280;2023-02-10T02:55:48;102846.59;;;1.20;100.00
62418;BME280;48456;54.242;10.280;2023-02-10T02:58:27;102842.41;;;1.22;100.00
62418;BME280;48456;54.242;10.280;2023-02-10T03:00:57;102844.22;;;1.23;100.00
62418;BME280;48456;54.242;10.280;2023-02-10T03:03:26;102840.69;;;1.23;100.00
62418;BME280;48456;54.242;10.280;2023-02-10T03:05:53;102841.63;;;1.23;100.00
62418;BME280;48456;54.242;10.280;2023-02-10T03:08:19;102838.91;;;1.22;100.00
62418;BME280;48456;54.242;10.280;2023-02-10T03:10:45;102828.56;;;1.23;100.00
62418;BME280;48456;54.242;10.280;2023-02-10T03:13:12;102843.63;;;1.27;100.00
62418;BME280;48456;54.242;10.280;2023-02-10T03:15:38;102849.94;;;1.31;100.00
62418;BME280;48456;54.242;10.280;2023-02-10T03:18:04;102839.94;;;1.37;100.00
62418;BME280;48456;54.242;10.280;2023-02-10T03:20:31;102842.72;;;1.40;100.00
62418;BME280;48456;54.242;10.280;2023-02-10T03:22:57;102842.94;;;1.43;100.00
62418;BME280;48456;54.242;10.280;2023-02-10T03:25:23;102851.88;;;1.47;100.00
62418;BME280;48456;54.242;10.280;2023-02-10T03:27:49;102847.66;;;1.49;100.00
62418;BME280;48456;54.242;10.280;2023-02-10T03:30:16;102852.28;;;1.53;100.00
62418;BME280;48456;54.242;10.280;2023-02-10T03:32:42;102853.97;;;1.53;100.00
62418;BME280;48456;54.242;10.280;2023-02-10T03:35:08;102857.50;;;1.53;100.00
62418;BME280;48456;54.242;10.280;2023-02-10T03:37:35;102854.19;;;1.56;100.00
62418;BME280;48456;54.242;10.280;2023-02-10T03:40:01;102857.72;;;1.57;100.00
62418;BME280;48456;54.242;10.280;2023-02-10T03:42:27;102861.41;;;1.60;100.00
62418;BME280;48456;54.242;10.280;2023-02-10T03:44:53;102858.91;;;1.62;100.00
62418;BME280;48456;54.242;10.280;2023-02-10T03:47:20;102852.97;;;1.64;100.00
62418;BME280;48456;54.242;10.280;2023-02-10T03:49:46;102848.69;;;1.65;100.00
62418;BME280;48456;54.242;10.280;2023-02-10T03:52:12;102853.19;;;1.67;100.00
62418;BME280;48456;54.242;10.280;2023-02-10T03:54:38;102860.31;;;1.70;100.00
62418;BME280;48456;54.242;10.280;2023-02-10T03:57:05;102858.63;;;1.71;100.00
62418;BME280;48456;54.242;10.280;2023-02-10T03:59:32;102865.66;;;1.72;100.00
62418;BME280;48456;54.242;10.280;2023-02-10T04:01:58;102857.00;;;1.73;100.00
62418;BME280;48456;54.242;10.280;2023-02-10T04:04:24;102857.00;;;1.73;100.00
62418;BME280;48456;54.242;10.280;2023-02-10T04:06:50;102865.03;;;1.76;100.00
62418;BME280;48456;54.242;10.280;2023-02-10T04:09:17;102858.91;;;1.75;100.00
62418;BME280;48456;54.242;10.280;2023-02-10T04:11:43;102866.94;;;1.78;100.00
62418;BME280;48456;54.242;10.280;2023-02-10T04:14:09;102863.53;;;1.79;100.00
62418;BME280;48456;54.242;10.280;2023-02-10T04:16:36;102866.34;;;1.83;100.00
62418;BME280;48456;54.242;10.280;2023-02-10T04:19:06;102860.19;;;1.82;100.00
62418;BME280;48456;54.242;10.280;2023-02-10T04:21:33;102862.91;;;1.84;100.00
62418;BME280;48456;54.242;10.280;2023-02-10T04:23:59;102856.78;;;1.83;100.00
62418;BME280;48456;54.242;10.280;2023-02-10T04:26:26;102872.56;;;1.85;100.00
62418;BME280;48456;54.242;10.280;2023-02-10T04:28:52;102867.63;;;1.89;100.00
62418;BME280;48456;54.242;10.280;2023-02-10T04:31:18;102865.94;;;1.90;100.00
62418;BME280;48456;54.242;10.280;2023-02-10T04:33:45;102864.22;;;1.90;100.00
62418;BME280;48456;54.242;10.280;2023-02-10T04:36:11;102877.38;;;1.92;100.00
62418;BME280;48456;54.242;10.280;2023-02-10T04:38:37;102880.09;;;1.93;100.00
62418;BME280;48456;54.242;10.280;2023-02-10T04:41:04;102886.28;;;1.95;100.00
62418;BME280;48456;54.242;10.280;2023-02-10T04:43:31;102888.13;;;1.97;100.00
62418;BME280;48456;54.242;10.280;2023-02-10T04:45:58;102890.84;;;1.98;100.00
62418;BME280;48456;54.242;10.280;2023-02-10T04:48:24;102890.91;;;2.00;100.00
62418;BME280;48456;54.242;10.280;2023-02-10T04:50:50;102888.41;;;2.01;100.00
62418;BME280;48456;54.242;10.280;2023-02-10T04:53:18;102885.78;;;2.01;100.00
62418;BME280;48456;54.242;10.280;2023-02-10T04:55:44;102888.50;;;2.03;100.00
62418;BME280;48456;54.242;10.280;2023-02-10T04:58:11;102885.09;;;2.04;100.00
62418;BME280;48456;54.242;10.280;2023-02-10T05:00:37;102884.19;;;2.03;100.00
62418;BME280;48456;54.242;10.280;2023-02-10T05:03:04;102887.81;;;2.05;100.00
62418;BME280;48456;54.242;10.280;2023-02-10T05:05:30;102895.75;;;2.07;100.00
62418;BME280;48456;54.242;10.280;2023-02-10T05:07:56;102894.91;;;2.08;100.00
62418;BME280;48456;54.242;10.280;2023-02-10T05:10:22;102895.03;;;2.10;100.00
62418;BME280;48456;54.242;10.280;2023-02-10T05:12:49;102892.41;;;2.10;100.00
62418;BME280;48456;54.242;10.280;2023-02-10T05:15:15;102888.22;;;2.12;100.00
62418;BME280;48456;54.242;10.280;2023-02-10T05:17:41;102905.69;;;2.13;100.00
62418;BME280;48456;54.242;10.280;2023-02-10T05:20:08;102905.88;;;2.16;100.00
62418;BME280;48456;54.242;10.280;2023-02-10T05:22:35;102903.38;;;2.17;100.00
62418;BME280;48456;54.242;10.280;2023-02-10T05:25:02;102906.00;;;2.17;100.00
62418;BME280;48456;54.242;10.280;2023-02-10T05:27:28;102904.25;;;2.18;100.00
62418;BME280;48456;54.242;10.280;2023-02-10T05:29:54;102907.69;;;2.17;100.00
62418;BME280;48456;54.242;10.280;2023-02-10T05:32:20;102912.09;;;2.18;100.00
62418;BME280;48456;54.242;10.280;2023-02-10T05:34:47;102906.00;;;2.17;100.00
62418;BME280;48456;54.242;10.280;2023-02-10T05:37:13;102899.94;;;2.18;100.00
62418;BME280;48456;54.242;10.280;2023-02-10T05:39:39;102907.69;;;2.17;100.00
62418;BME280;48456;54.242;10.280;2023-02-10T05:42:06;102898.94;;;2.16;100.00
62418;BME280;48456;54.242;10.280;2023-02-10T05:44:32;102901.53;;;2.16;100.00
62418;BME280;48456;54.242;10.280;2023-02-10T05:46:58;102913.00;;;2.18;100.00
62418;BME280;48456;54.242;10.280;2023-02-10T05:49:25;102902.47;;;2.17;100.00
62418;BME280;48456;54.242;10.280;2023-02-10T05:51:51;102909.97;;;2.12;100.00
62418;BME280;48456;54.242;10.280;2023-02-10T05:54:18;102903.78;;;2.10;100.00
62418;BME280;48456;54.242;10.280;2023-02-10T05:56:44;102909.59;;;2.06;100.00
62418;BME280;48456;54.242;10.280;2023-02-10T05:59:11;102921.75;;;2.05;100.00
62418;BME280;48456;54.242;10.280;2023-02-10T06:01:40;102919.34;;;2.08;100.00
62418;BME280;48456;54.242;10.280;2023-02-10T06:04:07;102917.66;;;2.09;100.00
62418;BME280;48456;54.242;10.280;2023-02-10T06:06:33;102917.72;;;2.11;100.00
62418;BME280;48456;54.242;10.280;2023-02-10T06:08:59;102922.88;;;2.09;100.00
62418;BME280;48456;54.242;10.280;2023-02-10T06:11:25;102920.84;;;2.05;100.00
62418;BME280;48456;54.242;10.280;2023-02-10T06:13:52;102917.13;;;2.01;100.00
62418;BME280;48456;54.242;10.280;2023-02-10T06:16:18;102927.47;;;2.00;100.00
62418;BME280;48456;54.242;10.280;2023-02-10T06:18:44;102917.03;;;2.00;100.00
62418;BME280;48456;54.242;10.280;2023-02-10T06:21:14;102928.38;;;2.00;100.00
62418;BME280;48456;54.242;10.280;2023-02-10T06:23:41;102927.38;;;1.98;100.00
62418;BME280;48456;54.242;10.280;2023-02-10T06:26:08;102926.25;;;1.94;100.00
62418;BME280;48456;54.242;10.280;2023-02-10T06:28:34;102926.06;;;1.91;100.00
62418;BME280;48456;54.242;10.280;2023-02-10T06:31:00;102936.41;;;1.90;100.00
62418;BME280;48456;54.242;10.280;2023-02-10T06:33:27;102937.19;;;1.89;100.00
62418;BME280;48456;54.242;10.280;2023-02-10T06:35:53;102934.69;;;1.90;100.00
62418;BME280;48456;54.242;10.280;2023-02-10T06:38:20;102951.16;;;1.89;100.00
62418;BME280;48456;54.242;10.280;2023-02-10T06:40:47;102954.88;;;1.93;100.00
62418;BME280;48456;54.242;10.280;2023-02-10T06:43:13;102965.53;;;1.96;100.00
62418;BME280;48456;54.242;10.280;2023-02-10T06:45:39;102964.81;;;1.99;100.00
62418;BME280;48456;54.242;10.280;2023-02-10T06:48:05;102958.72;;;1.98;100.00
62418;BME280;48456;54.242;10.280;2023-02-10T06:50:32;102957.91;;;1.99;100.00
62418;BME280;48456;54.242;10.280;2023-02-10T06:52:58;102962.53;;;2.03;100.00
62418;BME280;48456;54.242;10.280;2023-02-10T06:55:24;102967.66;;;2.02;100.00
62418;BME280;48456;54.242;10.280;2023-02-10T06:57:51;102972.97;;;2.03;100.00
62418;BME280;48456;54.242;10.280;2023-02-10T07:00:17;102972.38;;;2.07;100.00
62418;BME280;48456;54.242;10.280;2023-02-10T07:02:43;102970.84;;;2.11;100.00
62418;BME280;48456;54.242;10.280;2023-02-10T07:05:10;102970.34;;;2.17;100.00
62418;BME280;48456;54.242;10.280;2023-02-10T07:07:37;102969.66;;;2.19;100.00
62418;BME280;48456;54.242;10.280;2023-02-10T07:10:03;102969.97;;;2.24;100.00
62418;BME280;48456;54.242;10.280;2023-02-10T07:12:30;102979.81;;;2.28;100.00
62418;BME280;48456;54.242;10.280;2023-02-10T07:14:56;102980.91;;;2.32;100.00
62418;BME280;48456;54.242;10.280;2023-02-10T07:17:22;102976.75;;;2.36;100.00
62418;BME280;48456;54.242;10.280;2023-02-10T07:19:49;102973.56;;;2.40;100.00
62418;BME280;48456;54.242;10.280;2023-02-10T07:22:15;102970.31;;;2.44;100.00
62418;BME280;48456;54.242;10.280;2023-02-10T07:24:41;102974.94;;;2.48;100.00
62418;BME280;48456;54.242;10.280;2023-02-10T07:27:08;102965.63;;;2.52;100.00
62418;BME280;48456;54.242;10.280;2023-02-10T07:29:34;102963.88;;;2.52;100.00
62418;BME280;48456;54.242;10.280;2023-02-10T07:32:00;102968.41;;;2.55;100.00
62418;BME280;48456;54.242;10.280;2023-02-10T07:34:27;102976.44;;;2.58;100.00
62418;BME280;48456;54.242;10.280;2023-02-10T07:36:56;102982.88;;;2.63;100.00
62418;BME280;48456;54.242;10.280;2023-02-10T07:39:23;102983.88;;;2.65;100.00
62418;BME280;48456;54.242;10.280;2023-02-10T07:41:49;102989.09;;;2.65;100.00
62418;BME280;48456;54.242;10.280;2023-02-10T07:44:16;102983.88;;;2.65;100.00
62418;BME280;48456;54.242;10.280;2023-02-10T07:46:42;102984.75;;;2.66;100.00
62418;BME280;48456;54.242;10.280;2023-02-10T07:49:09;102982.34;;;2.69;100.00
62418;BME280;48456;54.242;10.280;2023-02-10T07:51:35;102984.16;;;2.70;100.00
62418;BME280;48456;54.242;10.280;2023-02-10T07:54:01;102981.44;;;2.68;100.00
62418;BME280;48456;54.242;10.280;2023-02-10T07:56:28;102984.16;;;2.70;100.00
62418;BME280;48456;54.242;10.280;2023-02-10T07:58:55;102994.72;;;2.71;100.00
62418;BME280;48456;54.242;10.280;2023-02-10T08:01:21;102994.00;;;2.74;100.00
62418;BME280;48456;54.242;10.280;2023-02-10T08:03:47;102997.63;;;2.76;100.00
62418;BME280;48456;54.242;10.280;2023-02-10T08:06:18;102999.72;;;2.82;100.00
62418;BME280;48456;54.242;10.280;2023-02-10T08:08:45;102994.69;;;2.85;100.00
62418;BME280;48456;54.242;10.280;2023-02-10T08:11:11;102996.69;;;2.89;100.00
62418;BME280;48456;54.242;10.280;2023-02-10T08:13:37;102989.03;;;2.92;100.00
62418;BME280;48456;54.242;10.280;2023-02-10T08:16:04;102993.56;;;2.95;100.00
62418;BME280;48456;54.242;10.280;2023-02-10T08:18:31;102990.41;;;3.01;100.00
62418;BME280;48456;54.242;10.280;2023-02-10T08:21:00;102996.06;;;3.07;100.00
62418;BME280;48456;54.242;10.280;2023-02-10T08:23:29;103007.50;;;3.09;100.00
62418;BME280;48456;54.242;10.280;2023-02-10T08:25:56;103012.00;;;3.11;100.00
62418;BME280;48456;54.242;10.280;2023-02-10T08:28:24;103008.56;;;3.12;100.00
62418;BME280;48456;54.242;10.280;2023-02-10T08:30:50;103008.47;;;3.11;100.00
62418;BME280;48456;54.242;10.280;2023-02-10T08:33:17;103011.19;;;3.12;100.00
62418;BME280;48456;54.242;10.280;2023-02-10T08:35:44;103018.94;;;3.11;100.00
62418;BME280;48456;54.242;10.280;2023-02-10T08:38:10;103017.13;;;3.10;100.00
62418;BME280;48456;54.242;10.280;2023-02-10T08:40:37;103019.75;;;3.10;100.00
62418;BME280;48456;54.242;10.280;2023-02-10T08:43:03;103014.72;;;3.13;100.00
62418;BME280;48456;54.242;10.280;2023-02-10T08:45:29;103022.88;;;3.18;100.00
62418;BME280;48456;54.242;10.280;2023-02-10T08:47:57;103025.66;;;3.21;100.00
62418;BME280;48456;54.242;10.280;2023-02-10T08:50:24;103023.94;;;3.21;100.00
62418;BME280;48456;54.242;10.280;2023-02-10T08:52:51;103024.88;;;3.22;100.00
62418;BME280;48456;54.242;10.280;2023-02-10T08:55:18;103018.81;;;3.23;100.00
62418;BME280;48456;54.242;10.280;2023-02-10T08:57:46;103017.19;;;3.25;100.00
62418;BME280;48456;54.242;10.280;2023-02-10T09:00:12;103015.69;;;3.29;100.00
62418;BME280;48456;54.242;10.280;2023-02-10T09:02:39;103020.19;;;3.31;100.00
62418;BME280;48456;54.242;10.280;2023-02-10T09:05:06;103022.00;;;3.32;100.00
62418;BME280;48456;54.242;10.280;2023-02-10T09:07:36;103030.94;;;3.36;100.00
62418;BME280;48456;54.242;10.280;2023-02-10T09:10:04;103027.53;;;3.37;100.00
62418;BME280;48456;54.242;10.280;2023-02-10T09:12:31;103024.97;;;3.38;100.00
62418;BME280;48456;54.242;10.280;2023-02-10T09:14:58;103025.78;;;3.37;100.00
62418;BME280;48456;54.242;10.280;2023-02-10T09:17:24;103023.38;;;3.41;100.00
62418;BME280;48456;54.242;10.280;2023-02-10T09:19:51;103023.47;;;3.42;100.00
62418;BME280;48456;54.242;10.280;2023-02-10T09:22:20;103017.41;;;3.43;100.00
62418;BME280;48456;54.242;10.280;2023-02-10T09:24:47;103021.06;;;3.45;100.00
62418;BME280;48456;54.242;10.280;2023-02-10T09:27:15;103025.66;;;3.49;100.00
62418;BME280;48456;54.242;10.280;2023-02-10T09:29:43;103025.66;;;3.49;100.00
62418;BME280;48456;54.242;10.280;2023-02-10T09:32:09;103018.78;;;3.51;100.00
62418;BME280;48456;54.242;10.280;2023-02-10T09:34:37;103013.84;;;3.56;100.00
62418;BME280;48456;54.242;10.280;2023-02-10T09:37:06;103008.25;;;3.65;100.00
62418;BME280;48456;54.242;10.280;2023-02-10T09:39:33;103015.13;;;3.78;100.00
62418;BME280;48456;54.242;10.280;2023-02-10T09:44:59;103030.84;;;3.78;100.00
62418;BME280;48456;54.242;10.280;2023-02-10T09:47:40;103029.19;;;3.80;100.00
62418;BME280;48456;54.242;10.280;2023-02-10T09:55:29;103031.19;;;3.84;100.00
62418;BME280;48456;54.242;10.280;2023-02-10T09:58:01;103030.13;;;3.81;100.00
62418;BME280;48456;54.242;10.280;2023-02-10T10:01:03;103032.53;;;3.77;100.00
62418;BME280;48456;54.242;10.280;2023-02-10T10:03:24;103042.75;;;3.73;100.00
62418;BME280;48456;54.242;10.280;2023-02-10T10:05:56;103034.34;;;3.79;100.00
62418;BME280;48456;54.242;10.280;2023-02-10T10:08:27;103028.31;;;3.80;100.00
62418;BME280;48456;54.242;10.280;2023-02-10T10:10:56;103033.81;;;3.69;100.00
62418;BME280;48456;54.242;10.280;2023-02-10T10:13:27;103038.41;;;3.73;100.00
62418;BME280;48456;54.242;10.280;2023-02-10T10:16:01;103033.56;;;3.80;100.00
62418;BME280;48456;54.242;10.280;2023-02-10T10:18:42;103038.69;;;3.78;100.00
62418;BME280;48456;54.242;10.280;2023-02-10T10:21:19;103042.59;;;3.85;100.00
62418;BME280;48456;54.242;10.280;2023-02-10T10:23:56;103043.31;;;3.82;100.00
62418;BME280;48456;54.242;10.280;2023-02-10T10:26:45;103044.19;;;3.83;100.00
62418;BME280;48456;54.242;10.280;2023-02-10T10:29:23;103040.78;;;3.84;100.00
62418;BME280;48456;54.242;10.280;2023-02-10T10:31:57;103052.44;;;3.89;100.00
62418;BME280;48456;54.242;10.280;2023-02-10T10:34:32;103040.50;;;3.94;100.00
62418;BME280;48456;54.242;10.280;2023-02-10T10:37:05;103047.53;;;3.95;100.00
62418;BME280;48456;54.242;10.280;2023-02-10T10:39:40;103053.88;;;3.99;100.00
62418;BME280;48456;54.242;10.280;2023-02-10T10:45:12;103053.78;;;4.12;100.00
62418;BME280;48456;54.242;10.280;2023-02-10T10:50:10;103033.00;;;4.31;100.00
62418;BME280;48456;54.242;10.280;2023-02-10T10:52:40;103031.09;;;4.43;100.00
62418;BME280;48456;54.242;10.280;2023-02-10T10:55:19;103018.50;;;4.52;100.00
62418;BME280;48456;54.242;10.280;2023-02-10T10:57:47;103023.31;;;4.76;100.00
62418;BME280;48456;54.242;10.280;2023-02-10T11:00:16;103020.06;;;4.97;100.00
62418;BME280;48456;54.242;10.280;2023-02-10T11:05:19;103027.72;;;5.09;100.00
62418;BME280;48456;54.242;10.280;2023-02-10T11:07:50;103023.94;;;5.04;100.00
62418;BME280;48456;54.242;10.280;2023-02-10T11:10:23;103021.94;;;5.00;100.00
62418;BME280;48456;54.242;10.280;2023-02-10T11:12:50;103021.81;;;4.97;100.00
62418;BME280;48456;54.242;10.280;2023-02-10T11:17:57;103013.97;;;4.65;100.00
62418;BME280;48456;54.242;10.280;2023-02-10T11:20:26;103012.88;;;4.61;100.00
62418;BME280;48456;54.242;10.280;2023-02-10T11:23:15;103017.25;;;4.46;100.00
62418;BME280;48456;54.242;10.280;2023-02-10T11:25:39;103017.91;;;4.41;100.00
62418;BME280;48456;54.242;10.280;2023-02-10T11:28:06;103014.09;;;4.36;100.00
62418;BME280;48456;54.242;10.280;2023-02-10T11:30:35;103012.06;;;4.31;100.00
62418;BME280;48456;54.242;10.280;2023-02-10T11:33:02;103007.81;;;4.18;100.00
62418;BME280;48456;54.242;10.280;2023-02-10T11:35:29;103008.44;;;4.13;100.00
62418;BME280;48456;54.242;10.280;2023-02-10T11:37:59;103006.38;;;4.08;100.00
62418;BME280;48456;54.242;10.280;2023-02-10T11:40:27;103002.13;;;3.95;100.00
62418;BME280;48456;54.242;10.280;2023-02-10T11:42:55;103010.53;;;3.89;100.00
62418;BME280;48456;54.242;10.280;2023-02-10T11:45:24;103001.84;;;3.90;100.00
62418;BME280;48456;54.242;10.280;2023-02-10T11:48:01;102998.25;;;4.03;100.00
62418;BME280;48456;54.242;10.280;2023-02-10T11:50:29;102997.97;;;3.98;100.00
62418;BME280;48456;54.242;10.280;2023-02-10T11:52:56;102983.63;;;4.07;100.00
62418;BME280;48456;54.242;10.280;2023-02-10T11:55:25;102974.38;;;4.13;100.00
62418;BME280;48456;54.242;10.280;2023-02-10T12:00:42;102967.97;;;4.23;100.00
62418;BME280;48456;54.242;10.280;2023-02-10T12:03:21;102969.97;;;4.12;100.00
62418;BME280;48456;54.242;10.280;2023-02-10T12:10:47;102971.88;;;4.00;100.00
62418;BME280;48456;54.242;10.280;2023-02-10T12:13:18;102972.75;;;4.00;100.00
62418;BME280;48456;54.242;10.280;2023-02-10T12:15:56;102966.63;;;4.00;100.00
62418;BME280;48456;54.242;10.280;2023-02-10T12:31:24;102942.03;;;4.13;100.00
62418;BME280;48456;54.242;10.280;2023-02-10T12:36:43;102945.66;;;4.15;100.00
62418;BME280;48456;54.242;10.280;2023-02-10T12:39:20;102943.97;;;4.15;100.00
62418;BME280;48456;54.242;10.280;2023-02-10T12:44:24;102932.91;;;4.21;100.00
62418;BME280;48456;54.242;10.280;2023-02-10T12:49:45;102912.66;;;4.50;100.00
62418;BME280;48456;54.242;10.280;2023-02-10T12:52:20;102911.72;;;4.65;100.00
62418;BME280;48456;54.242;10.280;2023-02-10T13:02:48;102926.53;;;4.81;100.00
62418;BME280;48456;54.242;10.280;2023-02-10T13:05:21;102930.66;;;4.76;100.00
62418;BME280;48456;54.242;10.280;2023-02-10T13:07:50;102935.34;;;4.81;100.00
62418;BME280;48456;54.242;10.280;2023-02-10T13:12:44;102922.34;;;4.85;100.00
62418;BME280;48456;54.242;10.280;2023-02-10T13:15:16;102916.16;;;4.83;100.00
62418;BME280;48456;54.242;10.280;2023-02-10T13:17:45;102905.31;;;4.76;100.00
62418;BME280;48456;54.242;10.280;2023-02-10T13:25:56;102887.59;;;4.72;100.00
62418;BME280;48456;54.242;10.280;2023-02-10T13:31:01;102887.31;;;4.83;100.00
62418;BME280;48456;54.242;10.280;2023-02-10T13:33:40;102873.84;;;4.76;100.00
62418;BME280;48456;54.242;10.280;2023-02-10T13:36:16;102852.38;;;4.84;100.00
62418;BME280;48456;54.242;10.280;2023-02-10T13:38:46;102847.13;;;4.84;100.00
62418;BME280;48456;54.242;10.280;2023-02-10T13:41:23;102855.84;;;4.83;100.00
62418;BME280;48456;54.242;10.280;2023-02-10T13:44:55;102865.56;;;4.85;100.00
62418;BME280;48456;54.242;10.280;2023-02-10T13:49:37;102859.28;;;4.81;100.00
62418;BME280;48456;54.242;10.280;2023-02-10T13:52:12;102860.81;;;4.78;100.00
62418;BME280;48456;54.242;10.280;2023-02-10T13:54:40;102864.28;;;4.77;100.00
62418;BME280;48456;54.242;10.280;2023-02-10T13:57:21;102857.06;;;4.73;100.00
62418;BME280;48456;54.242;10.280;2023-02-10T13:59:48;102849.38;;;4.76;100.00
62418;BME280;48456;54.242;10.280;2023-02-10T14:02:19;102836.09;;;4.73;100.00
62418;BME280;48456;54.242;10.280;2023-02-10T14:04:49;102837.97;;;4.75;100.00
62418;BME280;48456;54.242;10.280;2023-02-10T14:10:02;102831.09;;;4.77;100.00
62418;BME280;48456;54.242;10.280;2023-02-10T14:12:29;102832.88;;;4.78;100.00
62418;BME280;48456;54.242;10.280;2023-02-10T14:14:55;102829.13;;;4.73;100.00
62418;BME280;48456;54.242;10.280;2023-02-10T14:17:23;102823.88;;;4.73;100.00
62418;BME280;48456;54.242;10.280;2023-02-10T14:19:56;102833.38;;;4.71;100.00